createdAt,value
2024-02-04T00:00:08.817Z,1011.96
2024-02-04T00:01:08.938Z,1011.92
2024-02-04T00:02:08.866Z,1011.89
2024-02-04T00:03:08.852Z,1011.95
2024-02-04T00:04:08.996Z,1011.93
2024-02-04T00:05:08.877Z,1011.95
2024-02-04T00:06:08.926Z,1011.85
2024-02-04T00:07:08.941Z,1011.86
2024-02-04T00:08:08.916Z,1011.94
2024-02-04T00:09:08.931Z,1011.95
2024-02-04T00:10:08.987Z,1011.96
2024-02-04T00:11:08.950Z,1012.02
2024-02-04T00:12:08.967Z,1012.04
2024-02-04T00:13:09.032Z,1011.99
2024-02-04T00:14:08.992Z,1012.07
2024-02-04T00:15:09.005Z,1012.08
2024-02-04T00:16:09.091Z,1012.07
2024-02-04T00:17:09.032Z,1012.03
2024-02-04T00:18:09.098Z,1012.03
2024-02-04T00:19:09.100Z,1011.95
2024-02-04T00:20:09.076Z,1011.95
2024-02-04T00:21:09.102Z,1012.02
2024-02-04T00:22:09.122Z,1011.95
2024-02-04T00:23:09.120Z,1012.02
2024-02-04T00:24:09.137Z,1012.11
2024-02-04T00:25:09.168Z,1012.07
2024-02-04T00:26:09.151Z,1011.97
2024-02-04T00:27:09.165Z,1011.94
2024-02-04T00:28:09.227Z,1011.85
2024-02-04T00:29:09.188Z,1011.91
2024-02-04T00:30:09.229Z,1011.88
2024-02-04T00:31:09.261Z,1011.85
2024-02-04T00:32:09.237Z,1012.00
2024-02-04T00:33:09.319Z,1012.04
2024-02-04T00:34:09.465Z,1011.93
2024-02-04T00:35:09.265Z,1012.03
2024-02-04T00:36:09.296Z,1012.02
2024-02-04T00:37:09.320Z,1012.00
2024-02-04T00:38:09.307Z,1011.95
2024-02-04T00:39:09.319Z,1012.03
2024-02-04T00:40:09.369Z,1012.01
2024-02-04T00:41:09.344Z,1012.09
2024-02-04T00:42:09.362Z,1012.02
2024-02-04T00:43:09.391Z,1012.00
2024-02-04T00:44:09.382Z,1012.03
2024-02-04T00:45:09.399Z,1011.97
2024-02-04T00:46:09.444Z,1011.93
2024-02-04T00:47:09.424Z,1011.93
2024-02-04T00:48:09.513Z,1011.95
2024-02-04T00:49:09.552Z,1011.91
2024-02-04T00:50:09.527Z,1011.91
2024-02-04T00:51:09.478Z,1011.92
2024-02-04T00:52:09.548Z,1011.93
2024-02-04T00:53:09.496Z,1011.92
2024-02-04T00:54:09.512Z,1011.92
2024-02-04T00:55:09.531Z,1012.00
2024-02-04T00:56:09.534Z,1011.95
2024-02-04T00:57:09.550Z,1011.80
2024-02-04T00:58:09.587Z,1011.89
2024-02-04T00:59:09.571Z,1011.88
2024-02-04T01:00:09.594Z,1011.95
2024-02-04T01:01:09.699Z,1011.92
2024-02-04T01:02:09.613Z,1011.90
2024-02-04T01:03:09.703Z,1011.92
2024-02-04T01:04:09.696Z,1011.93
2024-02-04T01:05:09.671Z,1011.86
2024-02-04T01:06:09.670Z,1011.93
2024-02-04T01:07:09.745Z,1011.86
2024-02-04T01:08:09.706Z,1011.84
2024-02-04T01:09:09.705Z,1011.76
2024-02-04T01:10:10.293Z,1011.83
2024-02-04T01:11:09.727Z,1011.82
2024-02-04T01:12:09.744Z,1011.91
2024-02-04T01:13:09.757Z,1011.91
2024-02-04T01:14:09.765Z,1011.89
2024-02-04T01:15:09.780Z,1011.87
2024-02-04T01:16:09.883Z,1011.79
2024-02-04T01:17:09.805Z,1011.78
2024-02-04T01:18:09.884Z,1011.72
2024-02-04T01:19:09.985Z,1011.74
2024-02-04T01:20:09.844Z,1011.73
2024-02-04T01:21:09.860Z,1011.71
2024-02-04T01:22:09.921Z,1011.67
2024-02-04T01:23:09.952Z,1011.64
2024-02-04T01:24:09.891Z,1011.65
2024-02-04T01:25:09.999Z,1011.72
2024-02-04T01:26:09.918Z,1011.78
2024-02-04T01:27:09.930Z,1011.80
2024-02-04T01:28:10.000Z,1011.82
2024-02-04T01:29:09.958Z,1011.86
2024-02-04T01:30:09.975Z,1011.81
2024-02-04T01:31:10.052Z,1011.83
2024-02-04T01:32:10.006Z,1011.86
2024-02-04T01:33:10.066Z,1011.94
2024-02-04T01:34:10.106Z,1012.00
2024-02-04T01:35:10.054Z,1011.97
2024-02-04T01:36:10.046Z,1011.96
2024-02-04T01:37:10.096Z,1012.00
2024-02-04T01:38:10.078Z,1011.92
2024-02-04T01:39:10.084Z,1011.88
2024-02-04T01:40:10.189Z,1011.90
2024-02-04T01:41:10.153Z,1011.91
2024-02-04T01:42:10.129Z,1011.90
2024-02-04T01:43:10.202Z,1011.92
2024-02-04T01:44:10.141Z,1011.96
2024-02-04T01:45:10.169Z,1011.95
2024-02-04T01:46:10.313Z,1011.97
2024-02-04T01:47:10.178Z,1011.96
2024-02-04T01:48:10.293Z,1011.94
2024-02-04T01:49:10.265Z,1011.96
2024-02-04T01:50:10.217Z,1011.92
2024-02-04T01:51:10.227Z,1011.89
2024-02-04T01:52:10.268Z,1011.93
2024-02-04T01:53:10.253Z,1011.97
2024-02-04T01:54:10.266Z,1011.95
2024-02-04T01:55:10.326Z,1012.00
2024-02-04T01:56:10.291Z,1011.94
2024-02-04T01:57:10.301Z,1011.95
2024-02-04T01:58:10.356Z,1011.90
2024-02-04T01:59:10.331Z,1011.84
2024-02-04T02:00:10.334Z,1011.80
2024-02-04T02:01:10.445Z,1011.83
2024-02-04T02:02:10.363Z,1011.83
2024-02-04T02:03:10.377Z,1011.89
2024-02-04T02:04:10.441Z,1011.88
2024-02-04T02:05:10.666Z,1011.93
2024-02-04T02:06:10.430Z,1011.89
2024-02-04T02:07:10.503Z,1011.90
2024-02-04T02:08:10.433Z,1011.84
2024-02-04T02:09:10.474Z,1011.82
2024-02-04T02:10:10.597Z,1011.78
2024-02-04T02:11:10.467Z,1011.76
2024-02-04T02:12:10.486Z,1011.73
2024-02-04T02:13:10.552Z,1011.72
2024-02-04T02:14:10.520Z,1011.76
2024-02-04T02:15:10.517Z,1011.71
2024-02-04T02:16:10.597Z,1011.75
2024-02-04T02:17:10.545Z,1011.74
2024-02-04T02:18:10.603Z,1011.72
2024-02-04T02:19:10.788Z,1011.66
2024-02-04T02:20:10.576Z,1011.59
2024-02-04T02:21:10.592Z,1011.58
2024-02-04T02:22:10.624Z,1011.51
2024-02-04T02:23:10.611Z,1011.47
2024-02-04T02:24:10.624Z,1011.46
2024-02-04T02:25:10.712Z,1011.44
2024-02-04T02:26:10.651Z,1011.43
2024-02-04T02:27:10.679Z,1011.42
2024-02-04T02:28:10.704Z,1011.46
2024-02-04T02:29:10.706Z,1011.54
2024-02-04T02:30:10.705Z,1011.59
2024-02-04T02:31:10.876Z,1011.59
2024-02-04T02:32:10.719Z,1011.62
2024-02-04T02:33:10.857Z,1011.59
2024-02-04T02:34:11.179Z,1011.51
2024-02-04T02:35:10.826Z,1011.54
2024-02-04T02:36:10.771Z,1011.48
2024-02-04T02:37:10.851Z,1011.45
2024-02-04T02:38:10.814Z,1011.46
2024-02-04T02:39:10.809Z,1011.46
2024-02-04T02:40:10.858Z,1011.48
2024-02-04T02:41:10.821Z,1011.63
2024-02-04T02:42:10.846Z,1011.53
2024-02-04T02:43:10.918Z,1011.63
2024-02-04T02:44:10.859Z,1011.59
2024-02-04T02:45:10.873Z,1011.58
2024-02-04T02:46:10.919Z,1011.51
2024-02-04T02:47:10.965Z,1011.54
2024-02-04T02:48:10.977Z,1011.57
2024-02-04T02:49:11.006Z,1011.58
2024-02-04T02:50:11.084Z,1011.65
2024-02-04T02:51:10.968Z,1011.64
2024-02-04T02:52:11.016Z,1011.65
2024-02-04T02:53:10.973Z,1011.74
2024-02-04T02:54:10.990Z,1011.78
2024-02-04T02:55:11.032Z,1011.72
2024-02-04T02:56:11.003Z,1011.69
2024-02-04T02:57:11.032Z,1011.75
2024-02-04T02:58:11.072Z,1011.72
2024-02-04T02:59:11.046Z,1011.67
2024-02-04T03:00:11.050Z,1011.68
2024-02-04T03:01:11.195Z,1011.65
2024-02-04T03:02:11.075Z,1011.64
2024-02-04T03:03:11.143Z,1011.61
2024-02-04T03:04:11.205Z,1011.60
2024-02-04T03:05:11.121Z,1011.61
2024-02-04T03:06:11.188Z,1011.62
2024-02-04T03:07:11.157Z,1011.59
2024-02-04T03:08:11.143Z,1011.59
2024-02-04T03:09:11.190Z,1011.62
2024-02-04T03:10:11.290Z,1011.61
2024-02-04T03:11:11.185Z,1011.64
2024-02-04T03:12:11.189Z,1011.67
2024-02-04T03:13:11.253Z,1011.66
2024-02-04T03:14:11.229Z,1011.61
2024-02-04T03:15:11.228Z,1011.57
2024-02-04T03:16:11.327Z,1011.58
2024-02-04T03:17:11.250Z,1011.60
2024-02-04T03:18:11.285Z,1011.62
2024-02-04T03:19:11.351Z,1011.56
2024-02-04T03:20:11.368Z,1011.58
2024-02-04T03:21:11.301Z,1011.55
2024-02-04T03:22:11.409Z,1011.63
2024-02-04T03:23:11.326Z,1011.58
2024-02-04T03:24:11.333Z,1011.63
2024-02-04T03:25:11.418Z,1011.53
2024-02-04T03:26:11.358Z,1011.64
2024-02-04T03:27:11.377Z,1011.62
2024-02-04T03:28:11.411Z,1011.57
2024-02-04T03:29:11.403Z,1011.51
2024-02-04T03:30:11.435Z,1011.58
2024-02-04T03:31:11.454Z,1011.55
2024-02-04T03:32:11.432Z,1011.57
2024-02-04T03:33:11.629Z,1011.54
2024-02-04T03:34:11.552Z,1011.52
2024-02-04T03:35:11.469Z,1011.51
2024-02-04T03:36:11.477Z,1011.53
2024-02-04T03:37:11.617Z,1011.51
2024-02-04T03:38:11.509Z,1011.46
2024-02-04T03:39:11.512Z,1011.45
2024-02-04T03:40:11.589Z,1011.44
2024-02-04T03:41:11.562Z,1011.41
2024-02-04T03:42:11.558Z,1011.39
2024-02-04T03:43:11.622Z,1011.34
2024-02-04T03:44:11.587Z,1011.36
2024-02-04T03:45:11.623Z,1011.25
2024-02-04T03:46:11.641Z,1011.33
2024-02-04T03:47:11.626Z,1011.35
2024-02-04T03:48:11.754Z,1011.32
2024-02-04T03:49:11.806Z,1011.33
2024-02-04T03:50:11.679Z,1011.32
2024-02-04T03:51:11.666Z,1011.32
2024-02-04T03:52:11.720Z,1011.30
2024-02-04T03:53:11.684Z,1011.27
2024-02-04T03:54:11.704Z,1011.33
2024-02-04T03:55:11.774Z,1011.31
2024-02-04T03:56:11.730Z,1011.32
2024-02-04T03:57:11.742Z,1011.34
2024-02-04T03:58:11.809Z,1011.26
2024-02-04T03:59:11.769Z,1011.31
2024-02-04T04:00:11.788Z,1011.32
2024-02-04T04:01:11.900Z,1011.26
2024-02-04T04:02:11.799Z,1011.27
2024-02-04T04:03:11.811Z,1011.25
2024-02-04T04:04:11.913Z,1011.19
2024-02-04T04:05:11.914Z,1011.23
2024-02-04T04:06:11.982Z,1011.22
2024-02-04T04:07:12.029Z,1011.13
2024-02-04T04:08:11.871Z,1011.16
2024-02-04T04:09:11.915Z,1011.20
2024-02-04T04:10:11.994Z,1011.22
2024-02-04T04:11:11.919Z,1011.18
2024-02-04T04:12:11.940Z,1011.15
2024-02-04T04:13:12.040Z,1011.17
2024-02-04T04:14:11.965Z,1011.13
2024-02-04T04:15:11.967Z,1011.13
2024-02-04T04:16:12.010Z,1011.12
2024-02-04T04:17:12.001Z,1011.08
2024-02-04T04:18:12.077Z,1011.04
2024-02-04T04:19:12.092Z,1011.00
2024-02-04T04:20:12.023Z,1010.97
2024-02-04T04:21:12.035Z,1010.96
2024-02-04T04:22:12.090Z,1010.93
2024-02-04T04:23:12.060Z,1010.89
2024-02-04T04:24:12.075Z,1010.94
2024-02-04T04:25:12.104Z,1010.94
2024-02-04T04:26:12.099Z,1010.95
2024-02-04T04:27:12.110Z,1010.89
2024-02-04T04:28:12.185Z,1010.90
2024-02-04T04:29:12.139Z,1010.91
2024-02-04T04:30:12.148Z,1010.93
2024-02-04T04:31:12.246Z,1010.89
2024-02-04T04:32:12.170Z,1010.91
2024-02-04T04:33:12.272Z,1010.82
2024-02-04T04:34:12.428Z,1010.84
2024-02-04T04:35:12.212Z,1010.83
2024-02-04T04:36:12.217Z,1010.80
2024-02-04T04:37:12.250Z,1010.87
2024-02-04T04:38:12.246Z,1010.86
2024-02-04T04:39:12.250Z,1010.79
2024-02-04T04:40:12.328Z,1010.86
2024-02-04T04:41:12.280Z,1010.85
2024-02-04T04:42:12.292Z,1010.86
2024-02-04T04:43:12.326Z,1010.88
2024-02-04T04:44:12.318Z,1010.86
2024-02-04T04:45:12.351Z,1010.79
2024-02-04T04:46:12.465Z,1010.79
2024-02-04T04:47:12.349Z,1010.78
2024-02-04T04:48:12.447Z,1010.85
2024-02-04T04:49:12.488Z,1010.89
2024-02-04T04:50:12.389Z,1010.83
2024-02-04T04:51:12.398Z,1010.85
2024-02-04T04:52:12.416Z,1010.80
2024-02-04T04:53:12.423Z,1010.81
2024-02-04T04:54:12.435Z,1010.80
2024-02-04T04:55:12.502Z,1010.85
2024-02-04T04:56:12.474Z,1010.79
2024-02-04T04:57:12.483Z,1010.79
2024-02-04T04:58:12.506Z,1010.67
2024-02-04T04:59:12.504Z,1010.67
2024-02-04T05:00:12.508Z,1010.68
2024-02-04T05:01:12.600Z,1010.60
2024-02-04T05:02:12.534Z,1010.62
2024-02-04T05:03:12.540Z,1010.50
2024-02-04T05:04:12.697Z,1010.53
2024-02-04T05:05:12.646Z,1010.58
2024-02-04T05:06:12.582Z,1010.54
2024-02-04T05:07:12.679Z,1010.46
2024-02-04T05:08:12.600Z,1010.59
2024-02-04T05:09:12.613Z,1010.53
2024-02-04T05:10:12.649Z,1010.55
2024-02-04T05:11:12.633Z,1010.51
2024-02-04T05:12:12.658Z,1010.49
2024-02-04T05:13:12.735Z,1010.49
2024-02-04T05:14:12.688Z,1010.48
2024-02-04T05:15:12.690Z,1010.50
2024-02-04T05:16:12.771Z,1010.44
2024-02-04T05:17:12.720Z,1010.53
2024-02-04T05:18:12.814Z,1010.51
2024-02-04T05:19:12.790Z,1010.46
2024-02-04T05:20:12.748Z,1010.46
2024-02-04T05:21:12.753Z,1010.51
2024-02-04T05:22:12.808Z,1010.52
2024-02-04T05:23:12.776Z,1010.55
2024-02-04T05:24:12.790Z,1010.54
2024-02-04T05:25:12.835Z,1010.50
2024-02-04T05:26:12.810Z,1010.49
2024-02-04T05:27:12.823Z,1010.49
2024-02-04T05:28:12.868Z,1010.49
2024-02-04T05:29:12.847Z,1010.44
2024-02-04T05:30:12.892Z,1010.46
2024-02-04T05:31:12.904Z,1010.40
2024-02-04T05:32:12.883Z,1010.48
2024-02-04T05:33:12.901Z,1010.40
2024-02-04T05:34:12.985Z,1010.32
2024-02-04T05:35:12.934Z,1010.32
2024-02-04T05:36:12.929Z,1010.29
2024-02-04T05:37:13.005Z,1010.35
2024-02-04T05:38:12.948Z,1010.32
2024-02-04T05:39:12.984Z,1010.28
2024-02-04T05:40:13.000Z,1010.29
2024-02-04T05:41:12.984Z,1010.29
2024-02-04T05:42:12.999Z,1010.27
2024-02-04T05:43:13.536Z,1010.30
2024-02-04T05:44:13.022Z,1010.23
2024-02-04T05:45:13.054Z,1010.32
2024-02-04T05:46:13.097Z,1010.31
2024-02-04T05:47:13.075Z,1010.35
2024-02-04T05:48:13.138Z,1010.35
2024-02-04T05:49:13.294Z,1010.41
2024-02-04T05:50:13.161Z,1010.41
2024-02-04T05:51:13.101Z,1010.42
2024-02-04T05:52:13.130Z,1010.45
2024-02-04T05:53:13.113Z,1010.45
2024-02-04T05:54:13.145Z,1010.39
2024-02-04T05:55:13.274Z,1010.47
2024-02-04T05:56:13.149Z,1010.47
2024-02-04T05:57:13.156Z,1010.40
2024-02-04T05:58:13.209Z,1010.43
2024-02-04T05:59:13.202Z,1010.39
2024-02-04T06:00:13.194Z,1010.47
2024-02-04T06:01:13.253Z,1010.44
2024-02-04T06:02:13.273Z,1010.48
2024-02-04T06:03:13.247Z,1010.47
2024-02-04T06:04:13.333Z,1010.43
2024-02-04T06:05:13.254Z,1010.42
2024-02-04T06:06:13.289Z,1010.40
2024-02-04T06:07:13.315Z,1010.41
2024-02-04T06:08:13.284Z,1010.40
2024-02-04T06:09:13.301Z,1010.46
2024-02-04T06:10:13.392Z,1010.49
2024-02-04T06:11:13.322Z,1010.50
2024-02-04T06:12:13.332Z,1010.49
2024-02-04T06:13:13.439Z,1010.44
2024-02-04T06:14:13.359Z,1010.38
2024-02-04T06:15:13.368Z,1010.40
2024-02-04T06:16:13.511Z,1010.48
2024-02-04T06:17:13.417Z,1010.47
2024-02-04T06:18:13.427Z,1010.44
2024-02-04T06:19:13.464Z,1010.33
2024-02-04T06:20:13.480Z,1010.37
2024-02-04T06:21:13.448Z,1010.46
2024-02-04T06:22:13.509Z,1010.45
2024-02-04T06:23:13.462Z,1010.51
2024-02-04T06:24:13.477Z,1010.46
2024-02-04T06:25:13.624Z,1010.43
2024-02-04T06:26:13.548Z,1010.42
2024-02-04T06:27:13.573Z,1010.42
2024-02-04T06:28:13.554Z,1010.33
2024-02-04T06:29:13.557Z,1010.36
2024-02-04T06:30:13.549Z,1010.38
2024-02-04T06:31:13.595Z,1010.43
2024-02-04T06:32:13.577Z,1010.41
2024-02-04T06:33:13.642Z,1010.42
2024-02-04T06:34:13.642Z,1010.44
2024-02-04T06:35:13.610Z,1010.42
2024-02-04T06:36:13.635Z,1010.41
2024-02-04T06:37:13.696Z,1010.41
2024-02-04T06:38:13.637Z,1010.43
2024-02-04T06:39:13.652Z,1010.39
2024-02-04T06:40:13.709Z,1010.40
2024-02-04T06:41:13.673Z,1010.42
2024-02-04T06:42:13.684Z,1010.37
2024-02-04T06:43:13.735Z,1010.49
2024-02-04T06:44:13.716Z,1010.47
2024-02-04T06:45:13.733Z,1010.57
2024-02-04T06:46:13.858Z,1010.53
2024-02-04T06:47:13.743Z,1010.56
2024-02-04T06:48:13.814Z,1010.59
2024-02-04T06:49:13.836Z,1010.62
2024-02-04T06:50:13.789Z,1010.62
2024-02-04T06:51:13.835Z,1010.53
2024-02-04T06:52:13.899Z,1010.61
2024-02-04T06:53:13.817Z,1010.62
2024-02-04T06:54:13.827Z,1010.64
2024-02-04T06:55:13.911Z,1010.64
2024-02-04T06:56:13.848Z,1010.61
2024-02-04T06:57:13.863Z,1010.65
2024-02-04T06:58:13.914Z,1010.55
2024-02-04T06:59:13.887Z,1010.61
2024-02-04T07:00:13.899Z,1010.60
2024-02-04T07:01:14.056Z,1010.58
2024-02-04T07:02:13.956Z,1010.59
2024-02-04T07:03:13.993Z,1010.56
2024-02-04T07:04:14.056Z,1010.44
2024-02-04T07:05:13.952Z,1010.44
2024-02-04T07:06:14.074Z,1010.45
2024-02-04T07:07:14.017Z,1010.45
2024-02-04T07:08:13.989Z,1010.42
2024-02-04T07:09:13.999Z,1010.47
2024-02-04T07:10:14.074Z,1010.46
2024-02-04T07:11:14.029Z,1010.45
2024-02-04T07:12:14.058Z,1010.43
2024-02-04T07:13:14.089Z,1010.39
2024-02-04T07:14:14.064Z,1010.41
2024-02-04T07:15:14.074Z,1010.37
2024-02-04T07:16:14.130Z,1010.39
2024-02-04T07:17:14.099Z,1010.36
2024-02-04T07:18:14.168Z,1010.35
2024-02-04T07:19:14.208Z,1010.32
2024-02-04T07:20:14.165Z,1010.31
2024-02-04T07:21:14.163Z,1010.24
2024-02-04T07:22:14.171Z,1010.27
2024-02-04T07:23:14.167Z,1010.26
2024-02-04T07:24:14.193Z,1010.21
2024-02-04T07:25:14.284Z,1010.22
2024-02-04T07:26:14.204Z,1010.21
2024-02-04T07:27:14.229Z,1010.20
2024-02-04T07:28:14.302Z,1010.15
2024-02-04T07:29:14.342Z,1010.18
2024-02-04T07:30:14.435Z,1010.26
2024-02-04T07:31:14.405Z,1010.27
2024-02-04T07:32:14.430Z,1010.26
2024-02-04T07:33:14.492Z,1010.22
2024-02-04T07:34:14.346Z,1010.26
2024-02-04T07:35:14.478Z,1010.27
2024-02-04T07:36:14.382Z,1010.31
2024-02-04T07:37:14.538Z,1010.34
2024-02-04T07:38:14.410Z,1010.39
2024-02-04T07:39:14.401Z,1010.34
2024-02-04T07:40:14.440Z,1010.30
2024-02-04T07:41:14.439Z,1010.29
2024-02-04T07:42:14.443Z,1010.23
2024-02-04T07:43:14.494Z,1010.19
2024-02-04T07:44:14.494Z,1010.23
2024-02-04T07:45:14.478Z,1010.14
2024-02-04T07:46:14.725Z,1010.09
2024-02-04T07:47:14.524Z,1010.10
2024-02-04T07:48:14.543Z,1010.06
2024-02-04T07:49:14.671Z,1010.03
2024-02-04T07:50:14.694Z,1009.98
2024-02-04T07:51:14.540Z,1009.97
2024-02-04T07:52:14.672Z,1009.94
2024-02-04T07:53:14.567Z,1009.91
2024-02-04T07:54:14.600Z,1009.87
2024-02-04T07:55:14.697Z,1009.90
2024-02-04T07:56:14.614Z,1009.90
2024-02-04T07:57:14.613Z,1009.79
2024-02-04T07:58:14.650Z,1009.79
2024-02-04T07:59:14.658Z,1009.77
2024-02-04T08:00:14.642Z,1009.81
2024-02-04T08:01:14.749Z,1009.80
2024-02-04T08:02:14.653Z,1009.77
2024-02-04T08:03:14.764Z,1009.82
2024-02-04T08:04:14.883Z,1009.86
2024-02-04T08:05:14.798Z,1009.84
2024-02-04T08:06:14.718Z,1009.88
2024-02-04T08:07:14.982Z,1009.99
2024-02-04T08:08:14.880Z,1009.93
2024-02-04T08:09:14.742Z,1009.95
2024-02-04T08:10:14.932Z,1009.92
2024-02-04T08:11:14.872Z,1009.90
2024-02-04T08:12:14.774Z,1009.80
2024-02-04T08:13:14.859Z,1009.82
2024-02-04T08:14:14.798Z,1009.87
2024-02-04T08:15:14.842Z,1009.80
2024-02-04T08:16:14.926Z,1009.84
2024-02-04T08:17:14.843Z,1009.79
2024-02-04T08:18:14.946Z,1009.73
2024-02-04T08:19:15.103Z,1009.73
2024-02-04T08:20:14.950Z,1009.79
2024-02-04T08:21:14.905Z,1009.81
2024-02-04T08:22:14.994Z,1009.85
2024-02-04T08:23:14.921Z,1009.85
2024-02-04T08:24:14.934Z,1009.85
2024-02-04T08:25:15.044Z,1009.77
2024-02-04T08:26:14.953Z,1009.80
2024-02-04T08:27:15.074Z,1009.85
2024-02-04T08:28:15.071Z,1009.84
2024-02-04T08:29:14.990Z,1009.80
2024-02-04T08:30:15.019Z,1009.68
2024-02-04T08:31:15.122Z,1009.68
2024-02-04T08:32:15.047Z,1009.60
2024-02-04T08:33:15.063Z,1009.61
2024-02-04T08:34:15.152Z,1009.63
2024-02-04T08:35:15.182Z,1009.67
2024-02-04T08:36:15.104Z,1009.68
2024-02-04T08:37:15.170Z,1009.70
2024-02-04T08:38:15.136Z,1009.68
2024-02-04T08:39:15.130Z,1009.70
2024-02-04T08:40:15.196Z,1009.73
2024-02-04T08:41:15.154Z,1009.68
2024-02-04T08:42:15.163Z,1009.71
2024-02-04T08:43:15.215Z,1009.69
2024-02-04T08:44:22.756Z,1009.62
2024-02-04T08:45:15.208Z,1009.60
2024-02-04T08:46:15.368Z,1009.60
2024-02-04T08:47:15.225Z,1009.58
2024-02-04T08:48:15.279Z,1009.57
2024-02-04T08:49:15.343Z,1009.46
2024-02-04T08:50:15.267Z,1009.54
2024-02-04T08:51:15.330Z,1009.59
2024-02-04T08:52:15.424Z,1009.58
2024-02-04T08:53:15.321Z,1009.55
2024-02-04T08:54:15.337Z,1009.57
2024-02-04T08:55:15.384Z,1009.60
2024-02-04T08:56:15.448Z,1009.66
2024-02-04T08:57:15.364Z,1009.62
2024-02-04T08:58:15.458Z,1009.66
2024-02-04T08:59:15.390Z,1009.58
2024-02-04T09:00:15.417Z,1009.59
2024-02-04T09:01:15.623Z,1009.55
2024-02-04T09:02:15.440Z,1009.55
2024-02-04T09:03:15.501Z,1009.50
2024-02-04T09:04:15.530Z,1009.51
2024-02-04T09:05:15.542Z,1009.53
2024-02-04T09:06:15.596Z,1009.55
2024-02-04T09:07:15.722Z,1009.55
2024-02-04T09:08:15.572Z,1009.54
2024-02-04T09:09:15.536Z,1009.57
2024-02-04T09:10:15.720Z,1009.57
2024-02-04T09:11:15.560Z,1009.51
2024-02-04T09:12:15.598Z,1009.51
2024-02-04T09:13:15.665Z,1009.44
2024-02-04T09:14:15.610Z,1009.48
2024-02-04T09:15:15.656Z,1009.38
2024-02-04T09:16:15.993Z,1009.38
2024-02-04T09:17:15.654Z,1009.37
2024-02-04T09:18:15.870Z,1009.43
2024-02-04T09:19:15.845Z,1009.41
2024-02-04T09:20:15.829Z,1009.37
2024-02-04T09:21:15.874Z,1009.38
2024-02-04T09:22:15.726Z,1009.40
2024-02-04T09:23:15.722Z,1009.42
2024-02-04T09:24:15.789Z,1009.31
2024-02-04T09:25:15.844Z,1009.32
2024-02-04T09:26:19.000Z,1009.33
2024-02-04T09:27:15.839Z,1009.31
2024-02-04T09:28:15.892Z,1009.40
2024-02-04T09:29:15.815Z,1009.37
2024-02-04T09:30:15.888Z,1009.46
2024-02-04T09:31:15.990Z,1009.34
2024-02-04T09:32:18.907Z,1009.31
2024-02-04T09:33:16.069Z,1009.36
2024-02-04T09:34:18.522Z,1009.33
2024-02-04T09:35:16.152Z,1009.27
2024-02-04T09:36:16.279Z,1009.29
2024-02-04T09:37:16.002Z,1009.35
2024-02-04T09:38:16.222Z,1009.46
2024-02-04T09:39:15.951Z,1009.35
2024-02-04T09:40:16.077Z,1009.34
2024-02-04T09:41:15.998Z,1009.38
2024-02-04T09:42:15.986Z,1009.37
2024-02-04T09:43:16.125Z,1009.42
2024-02-04T09:44:18.116Z,1009.47
2024-02-04T09:45:16.049Z,1009.43
2024-02-04T09:46:16.141Z,1009.38
2024-02-04T09:47:16.136Z,1009.45
2024-02-04T09:48:16.181Z,1009.27
2024-02-04T09:49:16.247Z,1009.45
2024-02-04T09:50:20.011Z,1009.39
2024-02-04T09:51:16.210Z,1009.36
2024-02-04T09:52:16.231Z,1009.39
2024-02-04T09:53:16.156Z,1009.30
2024-02-04T09:54:16.166Z,1009.32
2024-02-04T09:55:16.195Z,1009.38
2024-02-04T09:56:19.203Z,1009.41
2024-02-04T09:57:16.247Z,1009.38
2024-02-04T09:58:16.269Z,1009.35
2024-02-04T09:59:16.351Z,1009.25
2024-02-04T10:00:16.330Z,1009.25
2024-02-04T10:01:16.409Z,1009.21
2024-02-04T10:02:19.000Z,1009.26
2024-02-04T10:03:16.322Z,1009.25
2024-02-04T10:04:16.416Z,1009.29
2024-02-04T10:05:16.592Z,1009.27
2024-02-04T10:06:16.686Z,1009.26
2024-02-04T10:07:16.469Z,1009.25
2024-02-04T10:08:19.123Z,1009.26
2024-02-04T10:09:16.526Z,1009.36
2024-02-04T10:10:16.446Z,1009.26
2024-02-04T10:11:16.491Z,1009.40
2024-02-04T10:12:16.427Z,1009.26
2024-02-04T10:13:16.442Z,1009.35
2024-02-04T10:14:18.289Z,1009.07
2024-02-04T10:15:16.476Z,1009.18
2024-02-04T10:16:16.483Z,1009.13
2024-02-04T10:17:16.496Z,1009.13
2024-02-04T10:18:16.607Z,1009.16
2024-02-04T10:19:16.606Z,1009.12
2024-02-04T10:20:19.529Z,1009.11
2024-02-04T10:21:16.570Z,1009.07
2024-02-04T10:22:16.598Z,1009.06
2024-02-04T10:23:16.636Z,1009.09
2024-02-04T10:24:16.600Z,1009.05
2024-02-04T10:25:16.678Z,1009.19
2024-02-04T10:26:16.649Z,1009.17
2024-02-04T10:27:22.869Z,1009.25
2024-02-04T10:28:16.692Z,1009.24
2024-02-04T10:29:16.678Z,1009.17
2024-02-04T10:30:16.682Z,1009.10
2024-02-04T10:31:16.802Z,1009.11
2024-02-04T10:32:21.794Z,1009.08
2024-02-04T10:33:16.822Z,1008.99
2024-02-04T10:34:16.881Z,1009.01
2024-02-04T10:35:16.754Z,1009.01
2024-02-04T10:36:16.781Z,1009.00
2024-02-04T10:37:16.834Z,1008.92
2024-02-04T10:38:16.798Z,1009.03
2024-02-04T10:39:16.819Z,1009.01
2024-02-04T10:40:16.854Z,1008.89
2024-02-04T10:41:16.840Z,1008.99
2024-02-04T10:42:16.857Z,1008.90
2024-02-04T10:43:16.879Z,1008.99
2024-02-04T10:44:16.893Z,1008.92
2024-02-04T10:45:16.910Z,1008.93
2024-02-04T10:46:16.987Z,1008.94
2024-02-04T10:47:16.929Z,1008.89
2024-02-04T10:48:17.045Z,1008.81
2024-02-04T10:49:17.109Z,1008.83
2024-02-04T10:50:16.978Z,1008.87
2024-02-04T10:51:17.160Z,1008.99
2024-02-04T10:52:17.045Z,1009.06
2024-02-04T10:53:17.035Z,1008.97
2024-02-04T10:54:17.040Z,1008.99
2024-02-04T10:55:17.115Z,1009.05
2024-02-04T10:56:17.138Z,1008.87
2024-02-04T10:57:17.080Z,1008.87
2024-02-04T10:58:17.180Z,1008.80
2024-02-04T10:59:17.107Z,1008.90
2024-02-04T11:00:17.124Z,1008.72
2024-02-04T11:01:17.223Z,1008.79
2024-02-04T11:02:17.155Z,1008.75
2024-02-04T11:03:17.201Z,1008.86
2024-02-04T11:04:17.262Z,1008.84
2024-02-04T11:05:17.200Z,1008.86
2024-02-04T11:06:17.269Z,1008.75
2024-02-04T11:07:17.254Z,1008.78
2024-02-04T11:08:17.293Z,1008.76
2024-02-04T11:09:17.272Z,1008.83
2024-02-04T11:10:17.361Z,1008.78
2024-02-04T11:11:17.296Z,1008.78
2024-02-04T11:12:17.315Z,1008.85
2024-02-04T11:13:17.398Z,1008.85
2024-02-04T11:14:17.350Z,1008.85
2024-02-04T11:15:17.361Z,1008.75
2024-02-04T11:16:17.405Z,1008.83
2024-02-04T11:17:17.391Z,1008.89
2024-02-04T11:18:17.501Z,1008.80
2024-02-04T11:19:19.573Z,1008.83
2024-02-04T11:20:17.492Z,1008.83
2024-02-04T11:21:17.486Z,1008.86
2024-02-04T11:22:17.512Z,1008.86
2024-02-04T11:23:17.494Z,1008.71
2024-02-04T11:24:17.522Z,1008.66
2024-02-04T11:25:17.600Z,1008.74
2024-02-04T11:26:17.521Z,1008.71
2024-02-04T11:27:17.582Z,1008.62
2024-02-04T11:28:17.665Z,1008.57
2024-02-04T11:29:17.562Z,1008.56
2024-02-04T11:30:17.692Z,1008.63
2024-02-04T11:31:17.793Z,1008.63
2024-02-04T11:32:17.661Z,1008.60
2024-02-04T11:33:17.769Z,1008.71
2024-02-04T11:34:17.901Z,1008.54
2024-02-04T11:35:17.933Z,1008.57
2024-02-04T11:36:17.749Z,1008.60
2024-02-04T11:37:17.819Z,1008.63
2024-02-04T11:38:17.796Z,1008.62
2024-02-04T11:39:17.732Z,1008.45
2024-02-04T11:40:17.921Z,1008.37
2024-02-04T11:41:17.806Z,1008.37
2024-02-04T11:42:17.774Z,1008.34
2024-02-04T11:43:17.830Z,1008.43
2024-02-04T11:44:17.797Z,1008.45
2024-02-04T11:45:17.847Z,1008.26
2024-02-04T11:46:17.941Z,1008.31
2024-02-04T11:47:17.839Z,1008.26
2024-02-04T11:48:18.017Z,1008.18
2024-02-04T11:49:18.181Z,1008.16
2024-02-04T11:50:18.178Z,1008.15
2024-02-04T11:51:17.984Z,1008.11
2024-02-04T11:52:18.015Z,1008.06
2024-02-04T11:53:18.037Z,1007.96
2024-02-04T11:54:18.001Z,1007.98
2024-02-04T11:55:18.077Z,1008.16
2024-02-04T11:56:18.028Z,1007.96
2024-02-04T11:57:18.071Z,1008.09
2024-02-04T11:58:18.043Z,1008.07
2024-02-04T11:59:18.020Z,1008.04
2024-02-04T12:00:18.037Z,1008.07
2024-02-04T12:01:18.131Z,1007.96
2024-02-04T12:02:18.069Z,1008.07
2024-02-04T12:03:18.083Z,1008.02
2024-02-04T12:04:18.141Z,1008.05
2024-02-04T12:05:18.136Z,1008.05